Time;durP1;ratioP1;P1;durP2;ratioP2;P2;SDS_P1;SDS_P2;PMS_P1;PMS_P2;Temp;Humidity;BMP_temperature;BMP_pressure;BME280_temperature;BME280_humidity;BME280_pressure;Samples;Min_cycle;Max_cycle;Signal;HPM_P1;HPM_P2
2022/03/20 00:08:58;;;;;;;3.25;0.77;;;7.40;99.90;;;;;;20784186;28;20059;-47
2022/03/20 00:19:02;;;;;;;2.28;0.77;;;7.30;99.90;;;;;;20778181;28;20049;-47
2022/03/20 00:29:04;;;;;;;3.10;1.13;;;7.10;99.90;;;;;;20783767;28;20068;-47
2022/03/20 00:39:05;;;;;;;3.42;1.40;;;7.00;99.90;;;;;;20767959;28;20034;-47
2022/03/20 00:49:06;;;;;;;2.63;1.23;;;7.00;99.90;;;;;;20776385;28;20045;-47
2022/03/20 00:59:07;;;;;;;4.70;1.38;;;6.90;99.90;;;;;;20799315;28;20045;-47
2022/03/20 01:09:08;;;;;;;5.68;1.70;;;6.70;99.90;;;;;;20791568;28;20049;-47
2022/03/20 01:19:09;;;;;;;3.72;1.27;;;6.70;99.90;;;;;;20802649;28;20040;-46
2022/03/20 01:29:10;;;;;;;4.72;1.98;;;6.70;99.90;;;;;;20799356;28;20041;-47
2022/03/20 01:39:11;;;;;;;4.13;2.47;;;6.70;99.90;;;;;;20793139;28;20041;-47
2022/03/20 01:49:13;;;;;;;8.20;2.17;;;6.60;99.90;;;;;;20793829;28;20060;-47
2022/03/20 01:59:15;;;;;;;5.97;1.98;;;6.40;99.90;;;;;;20787699;28;20509;-47
2022/03/20 02:09:17;;;;;;;5.13;2.15;;;6.40;99.90;;;;;;20789952;28;20184;-47
2022/03/20 02:19:19;;;;;;;5.40;1.90;;;6.30;99.90;;;;;;20793507;28;20029;-47
2022/03/20 02:29:20;;;;;;;8.10;3.38;;;6.10;99.90;;;;;;20784842;28;20053;-47
2022/03/20 02:39:21;;;;;;;4.93;2.03;;;6.10;99.90;;;;;;20785005;28;20049;-46
2022/03/20 02:49:22;;;;;;;6.68;2.25;;;6.00;99.90;;;;;;20779050;28;20046;-47
2022/03/20 02:59:24;;;;;;;5.63;2.13;;;5.90;99.90;;;;;;20771861;28;20044;-47
2022/03/20 03:19:45;;;;;;;8.32;2.40;;;5.90;99.90;;;;;;20768974;28;20650;-46
2022/03/20 03:29:46;;;;;;;6.38;2.60;;;5.90;99.90;;;;;;20770419;28;20080;-46
2022/03/20 03:39:48;;;;;;;4.72;2.33;;;5.80;99.90;;;;;;20751906;28;20519;-46
2022/03/20 03:49:49;;;;;;;4.38;1.88;;;5.80;99.90;;;;;;20783195;28;20049;-47
2022/03/20 03:59:50;;;;;;;7.25;1.92;;;5.60;99.90;;;;;;20788240;28;20041;-47
2022/03/20 04:09:52;;;;;;;5.55;1.98;;;5.60;99.90;;;;;;20787906;28;20049;-47
2022/03/20 04:19:53;;;;;;;5.88;1.90;;;5.50;99.90;;;;;;20781664;28;20042;-47
2022/03/20 04:29:54;;;;;;;5.80;2.47;;;5.40;99.90;;;;;;20807218;28;20512;-47
2022/03/20 04:39:57;;;;;;;4.93;1.92;;;5.20;99.90;;;;;;20796316;28;20409;-47
2022/03/20 05:00:21;;;;;;;9.90;3.17;;;5.00;99.90;;;;;;20794775;28;20275;-46
2022/03/20 05:20:43;;;;;;;6.63;2.80;;;5.10;99.90;;;;;;20786996;28;20522;-47
2022/03/20 05:30:44;;;;;;;10.57;3.83;;;5.00;99.90;;;;;;20778343;28;20052;-46
2022/03/20 05:40:46;;;;;;;5.18;2.50;;;5.00;99.90;;;;;;20773208;28;20135;-47
2022/03/20 05:50:48;;;;;;;7.97;2.72;;;5.00;99.90;;;;;;20781020;28;20061;-47
2022/03/20 06:00:50;;;;;;;7.85;2.65;;;5.20;99.90;;;;;;20792451;28;20120;-46
2022/03/20 06:10:51;;;;;;;7.53;3.28;;;5.10;99.90;;;;;;20781809;28;20054;-47
2022/03/20 06:20:52;;;;;;;11.75;3.45;;;5.10;99.90;;;;;;20772961;28;20539;-46
2022/03/20 06:30:54;;;;;;;9.80;3.45;;;5.20;99.90;;;;;;20785070;28;20049;-47
2022/03/20 06:40:55;;;;;;;6.80;3.20;;;5.20;99.90;;;;;;20773660;28;20053;-47
2022/03/20 06:50:56;;;;;;;8.38;3.22;;;5.20;99.90;;;;;;20771721;28;20235;-46
2022/03/20 07:00:57;;;;;;;6.43;3.05;;;5.20;99.90;;;;;;20787222;28;20021;-46
2022/03/20 07:10:58;;;;;;;8.82;4.28;;;5.10;99.90;;;;;;20780895;28;20049;-46
2022/03/20 07:20:59;;;;;;;11.07;4.05;;;5.20;99.90;;;;;;20781175;28;20335;-46
2022/03/20 07:31:00;;;;;;;8.75;3.70;;;5.40;99.90;;;;;;20781781;28;20417;-46
2022/03/20 07:41:02;;;;;;;8.73;4.53;;;5.60;99.90;;;;;;20781400;28;20443;-46
2022/03/20 07:51:03;;;;;;;12.90;3.88;;;5.80;99.90;;;;;;20786824;28;20049;-47
2022/03/20 08:01:04;;;;;;;9.90;4.38;;;6.00;99.90;;;;;;20776869;28;20430;-47
2022/03/20 08:11:06;;;;;;;10.35;5.22;;;6.20;99.90;;;;;;20780999;28;20045;-47
2022/03/20 08:21:09;;;;;;;11.10;4.82;;;6.10;99.90;;;;;;20780821;28;20041;-47
2022/03/20 08:31:10;;;;;;;10.25;4.20;;;6.20;99.90;;;;;;20751898;28;21028;-46
2022/03/20 08:41:12;;;;;;;12.52;4.72;;;6.40;99.90;;;;;;20767795;28;20053;-47
2022/03/20 08:51:13;;;;;;;11.77;4.88;;;6.60;99.90;;;;;;20766113;28;20444;-46
2022/03/20 09:01:14;;;;;;;12.40;4.85;;;7.00;99.90;;;;;;20771544;28;20037;-46
2022/03/20 09:11:18;;;;;;;10.20;4.85;;;7.30;99.90;;;;;;20775622;28;20045;-46
2022/03/20 09:21:19;;;;;;;11.80;5.05;;;7.20;99.90;;;;;;20795530;28;20044;-47
2022/03/20 09:31:20;;;;;;;13.57;5.78;;;7.00;99.90;;;;;;20782371;28;20045;-47
2022/03/20 09:41:30;;;;;;;10.88;5.22;;;7.00;99.90;;;;;;20780184;28;20400;-46
2022/03/20 09:51:34;;;;;;;11.27;4.88;;;6.80;99.90;;;;;;20786009;28;20224;-46
2022/03/20 10:01:36;;;;;;;10.32;4.65;;;6.80;99.90;;;;;;20801104;28;20533;-47
2022/03/20 10:11:54;;;;;;;13.57;5.30;;;6.80;99.90;;;;;;20798218;28;20042;-48
2022/03/20 10:21:59;;;;;;;15.23;5.55;;;7.00;99.90;;;;;;20808986;28;20087;-47
2022/03/20 10:32:10;;;;;;;12.55;6.05;;;7.20;99.90;;;;;;20821159;28;20049;-47
2022/03/20 10:42:12;;;;;;;13.20;5.55;;;7.70;99.90;;;;;;20804402;28;20459;-47
2022/03/20 10:52:22;;;;;;;15.65;5.32;;;8.20;98.80;;;;;;20820670;28;20042;-47
2022/03/20 11:02:25;;;;;;;16.40;7.40;;;8.10;98.20;;;;;;20821426;28;20045;-47
2022/03/20 11:12:29;;;;;;;15.25;6.35;;;7.70;98.50;;;;;;20823054;28;20053;-47
2022/03/20 11:22:31;;;;;;;15.80;6.15;;;7.60;98.10;;;;;;20817180;28;20037;-47
2022/03/20 11:32:34;;;;;;;16.63;7.53;;;7.40;99.90;;;;;;20818518;28;20496;-47
2022/03/20 11:42:36;;;;;;;10.98;5.57;;;7.00;99.90;;;;;;20832389;28;20528;-47
2022/03/20 11:52:44;;;;;;;20.90;6.60;;;6.80;99.90;;;;;;20811709;28;20049;-47
2022/03/20 12:02:48;;;;;;;15.45;7.85;;;7.00;99.90;;;;;;20820489;28;20266;-48
2022/03/20 12:13:12;;;;;;;19.15;7.43;;;7.60;99.90;;;;;;20811098;28;20045;-47
2022/03/20 12:23:32;;;;;;;12.70;6.90;;;7.80;99.90;;;;;;20806335;28;20040;-47
2022/03/20 12:33:33;;;;;;;17.13;7.47;;;7.80;99.90;;;;;;20808609;28;20045;-47
2022/03/20 12:43:34;;;;;;;17.08;6.05;;;7.60;99.90;;;;;;20809879;28;20041;-47
2022/03/20 12:53:54;;;;;;;14.52;6.65;;;7.70;99.90;;;;;;20836934;28;20468;-47
2022/03/20 13:03:55;;;;;;;21.08;7.15;;;7.90;99.90;;;;;;20829181;28;20072;-47
2022/03/20 13:14:01;;;;;;;19.10;8.15;;;8.70;99.90;;;;;;20829939;28;20060;-47
2022/03/20 13:24:05;;;;;;;19.38;7.78;;;9.20;99.90;;;;;;20832656;28;20041;-47
2022/03/20 13:34:06;;;;;;;19.00;7.78;;;9.10;99.90;;;;;;20828899;28;20080;-47
2022/03/20 13:44:09;;;;;;;20.60;7.78;;;8.90;99.90;;;;;;20818093;28;20034;-47
2022/03/20 13:54:14;;;;;;;15.15;7.53;;;8.50;99.90;;;;;;20825685;28;20037;-48
2022/03/20 14:04:20;;;;;;;18.38;8.70;;;8.60;99.90;;;;;;20820554;28;20044;-47
2022/03/20 14:14:41;;;;;;;29.38;8.05;;;8.60;99.90;;;;;;20816345;28;20053;-47
2022/03/20 14:25:04;;;;;;;20.63;8.50;;;8.90;99.90;;;;;;20832290;28;21345;-47
2022/03/20 14:45:31;;;;;;;21.50;8.50;;;9.20;99.90;;;;;;20826673;28;20043;-47
2022/03/20 14:55:33;;;;;;;16.95;8.27;;;9.10;99.90;;;;;;20822925;28;20053;-47
2022/03/20 15:05:34;;;;;;;17.40;7.72;;;9.70;99.90;;;;;;20826684;28;20051;-47
2022/03/20 15:15:35;;;;;;;17.35;7.20;;;10.10;99.90;;;;;;20832380;28;20053;-47
2022/03/20 15:25:37;;;;;;;20.50;9.13;;;9.90;99.90;;;;;;20810250;28;21105;-47
2022/03/20 15:35:39;;;;;;;16.85;7.05;;;9.40;99.90;;;;;;20813769;28;20528;-47
2022/03/20 15:45:40;;;;;;;19.67;8.27;;;9.10;99.90;;;;;;20792983;28;20041;-46
2022/03/20 15:55:41;;;;;;;20.67;7.70;;;9.00;99.90;;;;;;20789082;28;20067;-46
2022/03/20 16:05:44;;;;;;;18.05;9.02;;;8.80;99.90;;;;;;20787108;28;20029;-46
2022/03/20 16:15:45;;;;;;;15.98;7.35;;;8.80;99.90;;;;;;20810914;28;20033;-47
2022/03/20 16:36:09;;;;;;;18.88;7.78;;;8.80;99.90;;;;;;20797604;28;20044;-46
2022/03/20 16:46:12;;;;;;;19.00;7.63;;;8.40;99.90;;;;;;20806923;28;20650;-45
2022/03/20 16:56:13;;;;;;;16.92;7.03;;;8.30;99.90;;;;;;20795220;28;20485;-45
2022/03/20 17:06:14;;;;;;;20.40;8.55;;;7.90;99.90;;;;;;20804394;28;20045;-44
2022/03/20 17:16:17;;;;;;;37.17;14.25;;;7.70;99.90;;;;;;20816220;28;20045;-44
2022/03/20 17:26:18;;;;;;;29.42;13.48;;;7.60;99.90;;;;;;20816031;28;20034;-44
2022/03/20 17:36:19;;;;;;;19.92;8.18;;;7.50;99.90;;;;;;20822794;28;20046;-44
2022/03/20 17:46:20;;;;;;;16.40;7.63;;;7.10;99.90;;;;;;20832402;28;20041;-45
2022/03/20 17:56:24;;;;;;;20.50;8.52;;;7.00;99.90;;;;;;20821149;28;20629;-44
2022/03/20 18:16:50;;;;;;;46.20;17.58;;;6.70;99.90;;;;;;20799892;28;21488;-44
2022/03/20 18:26:51;;;;;;;35.40;14.07;;;6.50;99.90;;;;;;20809948;28;20052;-45
2022/03/20 18:36:53;;;;;;;28.23;11.68;;;6.50;99.90;;;;;;20822526;28;20069;-44
2022/03/20 18:46:54;;;;;;;23.33;9.68;;;6.40;99.90;;;;;;20813942;28;20429;-45
2022/03/20 18:56:55;;;;;;;24.77;8.85;;;6.20;99.90;;;;;;20813623;28;20786;-44
2022/03/20 19:06:57;;;;;;;25.05;10.00;;;6.20;99.90;;;;;;20824205;28;20049;-44
2022/03/20 19:16:58;;;;;;;20.52;9.07;;;6.10;99.90;;;;;;20839236;28;20044;-44
2022/03/20 19:27:00;;;;;;;21.02;9.60;;;6.00;99.90;;;;;;20827684;28;20519;-44
2022/03/20 19:47:22;;;;;;;41.10;16.42;;;5.90;99.90;;;;;;20821772;28;20044;-44
2022/03/20 19:57:24;;;;;;;30.90;12.20;;;5.70;99.90;;;;;;20816860;28;20048;-44
2022/03/20 20:07:25;;;;;;;23.98;10.93;;;5.60;99.90;;;;;;20816621;28;20041;-44
2022/03/20 20:17:27;;;;;;;28.00;10.30;;;5.60;99.90;;;;;;20809063;28;20044;-45
2022/03/20 20:27:29;;;;;;;25.77;10.57;;;5.60;99.90;;;;;;20814983;28;20048;-44
2022/03/20 20:37:30;;;;;;;23.02;9.73;;;5.60;99.90;;;;;;20812954;28;20036;-44
2022/03/20 20:47:32;;;;;;;26.52;9.68;;;5.60;99.90;;;;;;20808400;28;20042;-44
2022/03/20 20:57:33;;;;;;;26.17;10.70;;;5.40;99.90;;;;;;20812769;28;20041;-44
2022/03/20 21:17:54;;;;;;;24.42;10.32;;;5.40;99.90;;;;;;20715026;28;20273;-53
2022/03/20 21:27:57;;;;;;;23.23;10.10;;;5.30;99.90;;;;;;20683919;28;20051;-44
2022/03/20 21:37:59;;;;;;;25.38;10.82;;;5.20;99.90;;;;;;20683800;28;20038;-44
2022/03/20 21:48:00;;;;;;;21.58;9.73;;;4.90;99.90;;;;;;20696508;28;20046;-44
2022/03/20 21:58:01;;;;;;;20.88;10.48;;;4.80;99.90;;;;;;20713465;28;20048;-44
2022/03/20 22:08:03;;;;;;;24.83;10.25;;;4.70;99.90;;;;;;20755084;28;20060;-44
2022/03/20 22:18:06;;;;;;;24.85;10.80;;;4.50;99.90;;;;;;20873515;28;20037;-44
2022/03/20 22:28:11;;;;;;;26.75;10.60;;;4.40;99.90;;;;;;20891350;28;20060;-48
2022/03/20 22:38:12;;;;;;;20.10;10.52;;;4.50;99.90;;;;;;20867260;28;20046;-44
2022/03/20 22:58:33;;;;;;;26.67;9.73;;;4.70;99.90;;;;;;20853869;28;20040;-44
2022/03/20 23:08:37;;;;;;;31.52;11.23;;;4.70;99.90;;;;;;20844056;28;20048;-44
2022/03/20 23:18:40;;;;;;;25.80;11.13;;;4.70;99.90;;;;;;20876282;28;21463;-44
2022/03/20 23:28:42;;;;;;;26.02;11.65;;;4.60;99.90;;;;;;20871769;28;20048;-44
2022/03/20 23:38:43;;;;;;;30.77;11.80;;;4.50;99.90;;;;;;20880443;28;20527;-44
2022/03/20 23:48:44;;;;;;;23.73;9.77;;;4.40;99.90;;;;;;20853912;28;20041;-44
2022/03/20 23:58:45;;;;;;;25.25;8.88;;;4.40;99.90;;;;;;20878572;28;20048;-44
